Time;durP1;ratioP1;P1;durP2;ratioP2;P2;SDS_P1;SDS_P2;PMS_P1;PMS_P2;Temp;Humidity;BMP_temperature;BMP_pressure;BME280_temperature;BME280_humidity;BME280_pressure;Samples;Min_cycle;Max_cycle;Signal;HPM_P1;HPM_P2
2021/03/02 00:02:17;;;;;;;0.20;0.20;;;;;;;1.90;100.00;101723.88;5041300;28;20822;-52
2021/03/02 00:04:45;;;;;;;1.70;1.60;;;;;;;2.08;100.00;101723.56;5041691;28;20539;-52
2021/03/02 00:07:15;;;;;;;0.20;0.10;;;;;;;1.64;100.00;101720.47;5047966;28;20513;-52
2021/03/02 00:09:42;;;;;;;0.20;0.10;;;;;;;1.76;100.00;101718.22;5046556;28;20520;-52
2021/03/02 00:12:27;;;;;;;0.20;0.10;;;;;;;1.55;100.00;101709.72;5043865;28;20533;-52
2021/03/02 00:14:53;;;;;;;0.20;0.10;;;;;;;1.48;100.00;101719.09;5040828;28;20806;-52
2021/03/02 00:17:45;;;;;;;0.30;0.27;;;;;;;1.29;100.00;101703.66;5044672;28;20483;-52
2021/03/02 00:20:15;;;;;;;0.20;0.10;;;;;;;1.23;100.00;101707.81;5047605;28;21023;-52
2021/03/02 00:22:54;;;;;;;0.20;0.10;;;;;;;1.55;100.00;101709.72;5047357;28;20447;-52
2021/03/02 00:25:24;;;;;;;0.20;0.20;;;;;;;1.53;100.00;101710.53;5041917;28;20668;-52
2021/03/02 00:27:54;;;;;;;0.20;0.10;;;;;;;1.51;100.00;101705.25;5040767;28;20482;-52
2021/03/02 00:30:20;;;;;;;0.20;0.20;;;;;;;1.52;100.00;101712.25;5044203;28;20954;-52
2021/03/02 00:32:47;;;;;;;0.20;0.10;;;;;;;1.39;100.00;101717.94;5047337;28;20495;-52
2021/03/02 00:35:14;;;;;;;0.30;0.10;;;;;;;1.43;100.00;101722.44;5044330;28;20451;-52
2021/03/02 00:37:41;;;;;;;0.20;0.10;;;;;;;1.25;100.00;101722.75;5036664;28;20459;-51
2021/03/02 00:40:08;;;;;;;0.20;0.10;;;;;;;1.06;100.00;101725.59;5044553;28;20797;-52
2021/03/02 00:42:46;;;;;;;0.20;0.10;;;;;;;1.24;100.00;101715.72;5040284;28;20527;-54
2021/03/02 00:45:13;;;;;;;0.20;0.10;;;;;;;1.18;100.00;101718.13;5041525;28;20964;-54
2021/03/02 00:47:39;;;;;;;0.30;0.20;;;;;;;0.98;100.00;101725.34;5045704;28;20475;-54
2021/03/02 00:50:08;;;;;;;0.20;0.10;;;;;;;1.03;100.00;101725.50;5045849;28;20446;-52
2021/03/02 00:52:34;;;;;;;0.20;0.10;;;;;;;1.15;100.00;101724.16;5040327;28;20524;-52
2021/03/02 00:55:01;;;;;;;0.20;0.10;;;;;;;1.15;100.00;101723.28;5040959;28;20995;-52
2021/03/02 00:57:28;;;;;;;0.20;0.20;;;;;;;1.30;100.00;101721.16;5046998;28;20521;-52
2021/03/02 00:59:54;;;;;;;0.20;0.20;;;;;;;1.28;100.00;101717.59;5046109;28;20525;-52
2021/03/02 01:02:21;;;;;;;0.20;0.13;;;;;;;1.37;100.00;101716.97;5040082;28;20481;-52
2021/03/02 01:04:47;;;;;;;0.20;0.10;;;;;;;1.41;100.00;101711.91;5040956;28;20892;-52
2021/03/02 01:07:13;;;;;;;0.20;0.10;;;;;;;1.38;100.00;101722.31;5046563;28;20472;-52
2021/03/02 01:09:40;;;;;;;0.20;0.10;;;;;;;1.36;100.00;101726.56;5046050;28;20459;-52
2021/03/02 01:12:06;;;;;;;0.77;0.73;;;;;;;1.34;100.00;101728.25;5039887;28;20493;-52
2021/03/02 01:14:32;;;;;;;0.20;0.10;;;;;;;1.17;100.00;101718.97;5040603;28;20451;-52
2021/03/02 01:16:59;;;;;;;0.20;0.10;;;;;;;1.21;100.00;101733.94;5046642;28;20472;-52
2021/03/02 01:19:25;;;;;;;0.30;0.20;;;;;;;1.03;100.00;101722.88;5046196;28;20832;-51
2021/03/02 01:21:51;;;;;;;0.53;0.53;;;;;;;1.14;100.00;101724.13;5039400;28;21013;-52
2021/03/02 01:24:17;;;;;;;0.20;0.20;;;;;;;1.03;100.00;101722.88;5040595;28;20511;-52
2021/03/02 01:26:43;;;;;;;0.20;0.20;;;;;;;1.02;100.00;101726.34;5046022;28;20471;-52
2021/03/02 01:29:10;;;;;;;0.20;0.10;;;;;;;0.91;100.00;101723.34;5046449;28;20458;-52
2021/03/02 01:31:36;;;;;;;0.20;0.10;;;;;;;0.91;100.00;101712.00;5039819;28;20492;-52
2021/03/02 01:34:03;;;;;;;0.20;0.10;;;;;;;0.82;100.00;101729.19;5039836;28;20885;-52
2021/03/02 01:36:30;;;;;;;0.20;0.20;;;;;;;0.87;100.00;101719.75;5045219;28;20473;-52
2021/03/02 01:38:56;;;;;;;0.20;0.10;;;;;;;0.79;100.00;101725.56;5033551;28;20506;-53
2021/03/02 01:41:22;;;;;;;0.20;0.10;;;;;;;0.81;100.00;101719.53;5045413;28;20455;-52
2021/03/02 01:43:48;;;;;;;0.30;0.20;;;;;;;0.67;100.00;101728.63;5046285;28;20455;-52
2021/03/02 01:46:14;;;;;;;0.20;0.10;;;;;;;0.68;100.00;101719.06;5040304;28;20530;-52
2021/03/02 01:48:41;;;;;;;0.20;0.10;;;;;;;0.52;100.00;101718.53;5039382;28;20462;-52
2021/03/02 01:51:08;;;;;;;0.20;0.10;;;;;;;0.69;100.00;101721.75;5044909;28;20455;-53
2021/03/02 01:53:35;;;;;;;0.20;0.20;;;;;;;0.95;100.00;101721.72;5045950;28;20850;-53
2021/03/02 01:56:02;;;;;;;0.20;0.10;;;;;;;0.61;100.00;101719.69;5040426;28;20469;-53
2021/03/02 01:58:28;;;;;;;0.20;0.10;;;;;;;0.61;100.00;101720.59;5039044;28;20455;-53
2021/03/02 02:01:04;;;;;;;0.20;0.10;;;;;;;0.59;100.00;101717.03;5044389;28;20452;-52
2021/03/02 02:03:51;;;;;;;0.20;0.10;;;;;;;0.41;100.00;101714.66;5045594;28;20893;-53
2021/03/02 02:06:32;;;;;;;0.20;0.10;;;;;;;0.43;100.00;101710.38;5044946;28;20494;-53
2021/03/02 02:09:21;;;;;;;0.20;0.20;;;;;;;0.36;100.00;101715.31;5044589;28;20933;-52
2021/03/02 02:12:07;;;;;;;0.20;0.10;;;;;;;0.45;100.00;101715.66;5044221;28;20487;-53
2021/03/02 02:14:43;;;;;;;0.47;0.43;;;;;;;0.44;100.00;101711.25;5045527;28;20516;-53
2021/03/02 02:17:36;;;;;;;0.20;0.10;;;;;;;0.50;100.00;101701.88;5040864;28;20470;-52
2021/03/02 02:20:07;;;;;;;0.20;0.20;;;;;;;0.18;100.00;101694.66;5023432;28;20458;-53
2021/03/02 02:23:00;;;;;;;0.20;0.10;;;;;;;0.07;100.00;101695.97;5039678;28;20436;-52
2021/03/02 02:25:45;;;;;;;0.20;0.10;;;;;;;0.03;100.00;101694.97;5032189;28;20758;-52
2021/03/02 02:28:13;;;;;;;0.20;0.20;;;;;;;0.15;100.00;101694.53;5038785;28;20866;-53
2021/03/02 02:30:43;;;;;;;0.20;0.10;;;;;;;0.25;100.00;101689.66;5039116;28;20452;-53
2021/03/02 02:33:13;;;;;;;0.20;0.10;;;;;;;0.05;100.00;101689.81;5038359;28;21038;-52
2021/03/02 02:35:43;;;;;;;0.20;0.10;;;;;;;0.05;100.00;101692.41;5038793;28;20471;-52
2021/03/02 02:38:13;;;;;;;0.40;0.40;;;;;;;-0.03;100.00;101692.13;5051925;28;20443;-53
2021/03/02 02:40:41;;;;;;;0.20;0.10;;;;;;;0.35;100.00;101700.47;5038782;28;20820;-52
2021/03/02 02:43:10;;;;;;;0.20;0.10;;;;;;;0.32;100.00;101690.78;5042998;28;20490;-52
2021/03/02 02:45:37;;;;;;;0.60;0.60;;;;;;;0.38;100.00;101691.00;5034105;28;20450;-52
2021/03/02 02:48:04;;;;;;;0.20;0.10;;;;;;;0.29;100.00;101702.03;5044456;28;20463;-52
2021/03/02 02:50:31;;;;;;;0.20;0.10;;;;;;;0.16;100.00;101705.03;5049100;28;20454;-53
2021/03/02 02:52:59;;;;;;;0.20;0.10;;;;;;;0.35;100.00;101711.81;5044874;28;20570;-52
2021/03/02 02:55:35;;;;;;;0.20;0.10;;;;;;;0.30;100.00;101710.78;5026497;28;20452;-53
2021/03/02 02:58:04;;;;;;;0.20;0.10;;;;;;;0.56;100.00;101709.09;5046759;28;20814;-52
2021/03/02 03:00:32;;;;;;;0.20;0.10;;;;;;;0.31;100.00;101714.28;5042429;28;20496;-53
2021/03/02 03:03:01;;;;;;;0.27;0.17;;;;;;;0.12;100.00;101710.97;5044504;28;20451;-52
2021/03/02 03:05:30;;;;;;;0.20;0.10;;;;;;;0.44;100.00;101708.66;5049082;28;20451;-53
2021/03/02 03:08:18;;;;;;;0.20;0.10;;;;;;;0.32;100.00;101700.38;5048388;28;20500;-52
2021/03/02 03:10:48;;;;;;;0.20;0.10;;;;;;;0.41;100.00;101704.22;5046640;28;20444;-52
2021/03/02 03:13:18;;;;;;;0.20;0.10;;;;;;;0.44;100.00;101703.41;5048897;28;20497;-52
2021/03/02 03:15:55;;;;;;;0.20;0.10;;;;;;;0.45;100.00;101710.44;5045845;28;20474;-52
2021/03/02 03:18:25;;;;;;;0.30;0.10;;;;;;;0.47;100.00;101714.88;5041804;28;20799;-52
2021/03/02 03:20:52;;;;;;;0.20;0.10;;;;;;;0.31;100.00;101716.91;5043151;28;20447;-52
2021/03/02 03:23:19;;;;;;;0.20;0.10;;;;;;;0.23;100.00;101714.00;5048800;28;20444;-53
2021/03/02 03:25:46;;;;;;;0.20;0.10;;;;;;;0.23;100.00;101712.25;5047568;28;20819;-52
2021/03/02 03:28:15;;;;;;;0.20;0.10;;;;;;;0.20;100.00;101713.88;5042008;28;20516;-52
2021/03/02 03:30:42;;;;;;;0.20;0.10;;;;;;;0.22;100.00;101715.72;5042491;28;20452;-52
2021/03/02 03:33:12;;;;;;;0.20;0.10;;;;;;;0.04;100.00;101711.53;5048310;28;20575;-53
2021/03/02 03:35:41;;;;;;;0.20;0.10;;;;;;;-0.05;100.00;101714.69;5048482;28;20455;-53
2021/03/02 03:38:08;;;;;;;0.33;0.33;;;;;;;0.02;100.00;101718.44;5022957;28;20447;-52
2021/03/02 03:40:34;;;;;;;0.20;0.10;;;;;;;0.01;100.00;101709.72;5048337;28;20510;-52
2021/03/02 03:43:00;;;;;;;0.20;0.10;;;;;;;-0.10;100.00;101717.16;5042689;28;20500;-52
2021/03/02 03:45:27;;;;;;;0.20;0.10;;;;;;;-0.11;100.00;101727.53;5041831;28;20513;-52
2021/03/02 03:47:54;;;;;;;0.20;0.10;;;;;;;-0.04;100.00;101708.63;5047317;28;20463;-52
2021/03/02 03:50:20;;;;;;;0.20;0.10;;;;;;;-0.37;100.00;101722.22;5048233;28;20478;-52
2021/03/02 03:52:49;;;;;;;0.30;0.20;;;;;;;-0.37;100.00;101722.22;5042893;28;20486;-52
2021/03/02 03:55:19;;;;;;;0.20;0.10;;;;;;;-0.20;100.00;101716.75;5041759;28;20451;-52
2021/03/02 03:57:47;;;;;;;1.13;1.13;;;;;;;-0.37;100.00;101717.00;5045622;28;20448;-52
2021/03/02 04:00:14;;;;;;;0.20;0.10;;;;;;;-0.11;100.00;101719.72;5048026;28;20886;-52
2021/03/02 04:02:41;;;;;;;0.20;0.10;;;;;;;-0.14;100.00;101722.19;5044396;28;20912;-52
2021/03/02 04:05:08;;;;;;;0.20;0.10;;;;;;;-0.17;100.00;101719.47;5041494;28;20465;-52
2021/03/02 04:07:36;;;;;;;0.20;0.10;;;;;;;-0.39;100.00;101726.50;5044467;28;20517;-52
2021/03/02 04:10:04;;;;;;;5.63;1.80;;;;;;;-0.28;100.00;101728.59;5047846;28;20514;-52
2021/03/02 04:12:41;;;;;;;0.20;0.10;;;;;;;-0.27;100.00;101722.53;5045054;28;20483;-52
2021/03/02 04:15:26;;;;;;;0.20;0.10;;;;;;;-0.29;100.00;101725.09;5029820;28;20936;-52
2021/03/02 04:17:56;;;;;;;0.20;0.10;;;;;;;-0.43;100.00;101718.47;5041349;28;20455;-52
2021/03/02 04:20:22;;;;;;;0.20;0.10;;;;;;;-0.42;100.00;101728.06;5046018;28;20451;-52
2021/03/02 04:22:50;;;;;;;0.20;0.10;;;;;;;-0.58;100.00;101725.69;5047997;28;20443;-52
2021/03/02 04:25:16;;;;;;;0.20;0.10;;;;;;;-0.71;100.00;101727.81;5041276;28;20446;-51
2021/03/02 04:27:43;;;;;;;0.20;0.10;;;;;;;-0.57;100.00;101735.31;5040702;28;20531;-51
2021/03/02 04:30:10;;;;;;;0.20;0.10;;;;;;;-0.22;100.00;101724.53;5046103;28;21007;-51
2021/03/02 04:32:36;;;;;;;0.20;0.10;;;;;;;-0.63;100.00;101733.34;5047693;28;20493;-51
2021/03/02 04:35:03;;;;;;;0.20;0.10;;;;;;;-0.65;100.00;101733.28;5042762;28;20455;-51
2021/03/02 04:37:30;;;;;;;0.20;0.10;;;;;;;-0.76;100.00;101738.91;5039199;28;20992;-51
2021/03/02 04:39:56;;;;;;;0.30;0.20;;;;;;;-0.78;100.00;101744.06;5042976;28;20446;-51
2021/03/02 04:42:22;;;;;;;0.20;0.10;;;;;;;-0.76;100.00;101749.34;5039151;28;20451;-51
2021/03/02 04:44:48;;;;;;;0.20;0.10;;;;;;;-0.75;100.00;101751.13;5045250;28;20870;-51
2021/03/02 04:47:14;;;;;;;0.20;0.13;;;;;;;-0.98;100.00;101748.47;5047255;28;20474;-51
2021/03/02 04:49:40;;;;;;;0.20;0.10;;;;;;;-0.85;100.00;101754.19;5041741;28;20538;-51
2021/03/02 04:52:06;;;;;;;0.20;0.10;;;;;;;-0.87;100.00;101756.72;5040342;28;20490;-51
2021/03/02 04:54:33;;;;;;;0.20;0.20;;;;;;;-0.84;100.00;101761.19;5036035;28;20456;-51
2021/03/02 04:56:59;;;;;;;0.20;0.10;;;;;;;-1.05;100.00;101755.97;5043210;28;20532;-51
2021/03/02 04:59:25;;;;;;;0.20;0.10;;;;;;;-1.08;100.00;101756.75;5042961;28;20447;-51
2021/03/02 05:01:51;;;;;;;0.20;0.10;;;;;;;-0.95;100.00;101753.81;5040169;28;20497;-51
2021/03/02 05:04:17;;;;;;;0.20;0.10;;;;;;;-1.14;100.00;101750.38;5044933;28;20459;-51
2021/03/02 05:06:44;;;;;;;0.20;0.10;;;;;;;-1.18;100.00;101746.75;5046902;28;20525;-51
2021/03/02 05:09:10;;;;;;;0.20;0.10;;;;;;;-0.94;100.00;101757.31;5042944;28;20509;-51
2021/03/02 05:11:36;;;;;;;0.20;0.20;;;;;;;-0.91;100.00;101757.44;5039439;28;20538;-50
2021/03/02 05:14:02;;;;;;;0.20;0.10;;;;;;;-1.04;100.00;101763.88;5044453;28;20451;-50
2021/03/02 05:16:28;;;;;;;0.20;0.10;;;;;;;-1.08;100.00;101756.75;5046937;28;20536;-50
2021/03/02 05:18:55;;;;;;;0.20;0.17;;;;;;;-1.14;100.00;101758.19;5031406;28;20827;-50
2021/03/02 05:21:21;;;;;;;0.20;0.10;;;;;;;-1.04;100.00;101763.88;5044316;28;20998;-50
2021/03/02 05:23:47;;;;;;;0.20;0.20;;;;;;;-1.06;100.00;101770.75;5042197;28;20948;-50
2021/03/02 05:26:13;;;;;;;0.20;0.10;;;;;;;-1.22;100.00;101758.78;5040069;28;20877;-50
2021/03/02 05:28:39;;;;;;;0.20;0.10;;;;;;;-1.28;100.00;101761.09;5044256;28;20459;-50
2021/03/02 05:31:05;;;;;;;0.20;0.10;;;;;;;-1.20;100.00;101758.84;5046373;28;20871;-50
2021/03/02 05:33:32;;;;;;;0.20;0.10;;;;;;;-1.25;100.00;101765.56;5042176;28;20490;-50
2021/03/02 05:35:58;;;;;;;0.20;0.10;;;;;;;-1.14;100.00;101769.50;5039732;28;20574;-50
2021/03/02 05:38:24;;;;;;;0.20;0.20;;;;;;;-1.33;100.00;101770.47;5033550;28;20861;-50
2021/03/02 05:40:53;;;;;;;0.20;0.10;;;;;;;-1.18;100.00;101758.91;5042822;28;20459;-51
2021/03/02 05:43:19;;;;;;;0.50;0.50;;;;;;;-1.14;100.00;101755.59;5042853;28;20979;-50
2021/03/02 05:45:45;;;;;;;0.20;0.10;;;;;;;-1.23;100.00;101769.16;5038851;28;20932;-50
2021/03/02 05:48:12;;;;;;;0.20;0.10;;;;;;;-1.33;100.00;101769.56;5042853;28;20891;-50
2021/03/02 05:50:38;;;;;;;0.30;0.20;;;;;;;-1.36;100.00;101765.13;5045946;28;20462;-51
2021/03/02 05:53:06;;;;;;;0.20;0.10;;;;;;;-1.43;100.00;101764.75;5042838;28;20953;-50
2021/03/02 05:55:35;;;;;;;0.20;0.10;;;;;;;-1.39;100.00;101770.16;5039115;28;20451;-51
2021/03/02 05:58:05;;;;;;;0.20;0.10;;;;;;;-1.44;100.00;101769.09;5041976;28;20474;-50
2021/03/02 06:00:32;;;;;;;0.20;0.10;;;;;;;-1.29;100.00;101768.88;5045281;28;20452;-50
2021/03/02 06:02:59;;;;;;;0.20;0.20;;;;;;;-1.29;100.00;101771.47;5043957;28;20545;-50
2021/03/02 06:05:26;;;;;;;0.20;0.10;;;;;;;-1.36;100.00;101774.66;5038986;28;20450;-50
2021/03/02 06:07:52;;;;;;;0.20;0.10;;;;;;;-1.21;100.00;101780.53;5040938;28;20486;-50
2021/03/02 06:10:18;;;;;;;0.20;0.10;;;;;;;-1.33;100.00;101772.16;5045618;28;20447;-51
2021/03/02 06:12:56;;;;;;;0.20;0.10;;;;;;;-1.30;100.00;101774.91;5044299;28;20947;-50
2021/03/02 06:15:23;;;;;;;0.20;0.10;;;;;;;-1.28;100.00;101788.91;5038490;28;20446;-50
2021/03/02 06:18:19;;;;;;;0.20;0.10;;;;;;;-1.32;100.00;101785.28;5038466;28;20444;-51
2021/03/02 06:20:45;;;;;;;0.20;0.10;;;;;;;-1.33;100.00;101788.72;5041921;28;20510;-50
2021/03/02 06:23:22;;;;;;;0.20;0.10;;;;;;;-1.34;100.00;101788.66;5045383;28;20815;-50
2021/03/02 06:26:07;;;;;;;0.20;0.10;;;;;;;-1.37;100.00;101783.28;5044024;28;20516;-50
2021/03/02 06:28:44;;;;;;;0.20;0.10;;;;;;;-1.35;100.00;101786.88;5042812;28;20951;-50
2021/03/02 06:31:33;;;;;;;0.20;0.10;;;;;;;-1.24;100.00;101794.31;5045680;28;20439;-50
2021/03/02 06:34:10;;;;;;;0.20;0.10;;;;;;;-1.31;100.00;101791.38;5045033;28;20887;-50
2021/03/02 06:36:38;;;;;;;0.20;0.10;;;;;;;-1.28;100.00;101801.94;5044723;28;20464;-50
2021/03/02 06:39:33;;;;;;;0.30;0.10;;;;;;;-1.13;100.00;101799.09;5034061;28;20451;-51
2021/03/02 06:42:18;;;;;;;0.20;0.10;;;;;;;-1.11;100.00;101803.56;5039738;28;20451;-50
2021/03/02 06:44:51;;;;;;;0.20;0.10;;;;;;;-1.06;100.00;101803.78;5028674;28;20446;-50
2021/03/02 06:47:34;;;;;;;0.20;0.10;;;;;;;-0.96;100.00;101805.91;5041305;28;20863;-50
2021/03/02 06:50:03;;;;;;;0.40;0.40;;;;;;;-0.91;100.00;101813.13;5043522;28;20478;-50
2021/03/02 06:52:35;;;;;;;0.20;0.10;;;;;;;-0.87;100.00;101808.94;5038284;28;21064;-50
2021/03/02 06:55:02;;;;;;;0.20;0.20;;;;;;;-0.55;100.00;101809.38;5039418;28;20448;-50
2021/03/02 06:57:28;;;;;;;0.20;0.10;;;;;;;-0.50;100.00;101807.84;5044974;28;20471;-50
2021/03/02 06:59:57;;;;;;;0.20;0.10;;;;;;;-0.40;100.00;101813.50;5045141;28;20869;-50
2021/03/02 07:02:43;;;;;;;0.20;0.10;;;;;;;-0.38;100.00;101810.97;5045154;28;20459;-50
2021/03/02 07:05:15;;;;;;;0.20;0.10;;;;;;;-0.34;100.00;101810.25;5045475;28;20444;-49
2021/03/02 07:07:55;;;;;;;0.20;0.10;;;;;;;-0.26;100.00;101810.56;5042230;28;20486;-50
2021/03/02 07:10:24;;;;;;;0.20;0.13;;;;;;;-0.14;100.00;101811.03;5038718;28;20442;-50
2021/03/02 07:12:54;;;;;;;0.30;0.27;;;;;;;-0.05;100.00;101817.50;5038943;28;20592;-49
2021/03/02 07:15:21;;;;;;;0.20;0.20;;;;;;;0.04;100.00;101813.47;5038406;28;20508;-50
2021/03/02 07:17:54;;;;;;;2.30;2.20;;;;;;;0.22;100.00;101822.00;5038409;28;20447;-50
2021/03/02 07:20:24;;;;;;;0.20;0.17;;;;;;;0.31;100.00;101819.75;5026876;28;20450;-49
2021/03/02 07:22:53;;;;;;;0.20;0.10;;;;;;;0.48;100.00;101829.13;5038500;28;20459;-50
2021/03/02 07:25:22;;;;;;;0.20;0.10;;;;;;;0.48;100.00;101830.84;5043106;28;20481;-50
2021/03/02 07:27:51;;;;;;;0.20;0.10;;;;;;;0.36;100.00;101815.59;5045023;28;20474;-50
2021/03/02 07:30:18;;;;;;;0.20;0.10;;;;;;;0.41;100.00;101829.75;5041218;28;20848;-49
2021/03/02 07:32:47;;;;;;;0.20;0.10;;;;;;;0.46;100.00;101825.56;5037442;28;20483;-50
2021/03/02 07:35:24;;;;;;;0.20;0.10;;;;;;;0.65;100.00;101828.84;5045145;28;20451;-50
2021/03/02 07:37:50;;;;;;;0.20;0.10;;;;;;;0.83;100.00;101838.25;5043580;28;20432;-50
2021/03/02 07:40:19;;;;;;;0.20;0.10;;;;;;;0.92;100.00;101828.94;5038842;28;20862;-50
2021/03/02 07:42:45;;;;;;;0.20;0.10;;;;;;;1.05;100.00;101820.69;5041444;28;20950;-50
2021/03/02 07:45:19;;;;;;;0.20;0.10;;;;;;;1.31;100.00;101830.31;5042495;28;20948;-50
2021/03/02 07:48:00;;;;;;;0.30;0.30;;;;;;;1.35;100.00;101832.19;5032613;28;20522;-50
2021/03/02 07:50:32;;;;;;;0.20;0.10;;;;;;;1.42;100.00;101831.56;5041964;28;20867;-51
2021/03/02 07:53:17;;;;;;;0.30;0.10;;;;;;;1.59;100.00;101834.75;5045541;28;20488;-50
2021/03/02 07:55:44;;;;;;;0.20;0.10;;;;;;;1.66;100.00;101828.88;5047814;28;21070;-51
2021/03/02 07:58:18;;;;;;;0.30;0.27;;;;;;;1.79;100.00;101832.78;5046523;28;20447;-51
2021/03/02 08:00:47;;;;;;;0.20;0.10;;;;;;;1.91;100.00;101842.75;5041821;28;20504;-51
2021/03/02 08:03:29;;;;;;;0.20;0.10;;;;;;;1.92;100.00;101834.94;5041331;28;20451;-51
2021/03/02 08:05:57;;;;;;;0.20;0.10;;;;;;;2.16;100.00;101833.91;5045522;28;20468;-51
2021/03/02 08:08:23;;;;;;;0.20;0.10;;;;;;;2.18;100.00;101833.09;5047848;28;20462;-51
2021/03/02 08:10:54;;;;;;;0.30;0.30;;;;;;;2.32;100.00;101831.78;5043946;28;20458;-51
2021/03/02 08:13:33;;;;;;;0.20;0.10;;;;;;;2.41;100.00;101828.56;5041391;28;20840;-51
2021/03/02 08:16:00;;;;;;;10.93;4.57;;;;;;;2.59;100.00;101836.94;5043101;28;20463;-51
2021/03/02 08:18:45;;;;;;;0.20;0.10;;;;;;;2.76;100.00;101833.94;5047013;28;20538;-51
2021/03/02 08:21:29;;;;;;;0.30;0.30;;;;;;;2.90;100.00;101837.84;5047521;28;20451;-51
2021/03/02 08:23:57;;;;;;;0.20;0.10;;;;;;;3.05;100.00;101838.25;5044838;28;20501;-51
2021/03/02 08:26:33;;;;;;;0.20;0.20;;;;;;;3.07;100.00;101840.91;5041133;28;20877;-51
2021/03/02 08:29:09;;;;;;;0.20;0.10;;;;;;;3.17;100.00;101845.56;5042542;28;20451;-51
2021/03/02 08:31:38;;;;;;;0.20;0.10;;;;;;;3.32;100.00;101847.72;5028963;28;20500;-51
2021/03/02 08:34:06;;;;;;;0.20;0.20;;;;;;;3.41;100.00;101858.44;5040821;28;20522;-51
2021/03/02 08:36:34;;;;;;;0.20;0.10;;;;;;;3.45;100.00;101848.06;5046510;28;20515;-54
2021/03/02 08:39:10;;;;;;;2.30;2.10;;;;;;;3.65;100.00;101851.19;5022362;28;20894;-54
2021/03/02 08:41:42;;;;;;;0.20;0.10;;;;;;;3.83;100.00;101849.00;5044838;28;20453;-54
2021/03/02 08:44:19;;;;;;;0.20;0.10;;;;;;;3.88;100.00;101843.84;5047686;28;20451;-54
2021/03/02 08:46:55;;;;;;;0.20;0.10;;;;;;;4.10;100.00;101839.97;5044716;28;20487;-54
2021/03/02 08:49:24;;;;;;;0.27;0.20;;;;;;;4.26;100.00;101843.84;5040974;28;20449;-54
2021/03/02 08:52:02;;;;;;;0.20;0.20;;;;;;;4.50;100.00;101843.47;5040908;28;20510;-54
2021/03/02 08:54:28;;;;;;;0.20;0.10;;;;;;;4.46;100.00;101848.69;5030049;28;20446;-54
2021/03/02 08:57:05;;;;;;;0.20;0.17;;;;;;;4.33;100.00;101838.75;5040389;28;20472;-54
2021/03/02 08:59:32;;;;;;;0.30;0.10;;;;;;;4.75;100.00;101845.78;5044962;28;20447;-54
2021/03/02 09:01:58;;;;;;;0.20;0.10;;;;;;;4.98;100.00;101833.94;5047067;28;21459;-54
2021/03/02 09:04:33;;;;;;;0.30;0.20;;;;;;;5.29;100.00;101834.50;5044311;28;20447;-54
2021/03/02 09:07:00;;;;;;;0.30;0.20;;;;;;;5.29;100.00;101847.69;5040191;28;20838;-54
2021/03/02 09:09:26;;;;;;;0.30;0.10;;;;;;;5.61;100.00;101840.31;5043384;28;20451;-53
2021/03/02 09:11:56;;;;;;;0.27;0.20;;;;;;;5.63;99.15;101834.25;5047071;28;20462;-54
2021/03/02 09:14:28;;;;;;;0.50;0.50;;;;;;;5.72;99.72;101841.41;5044584;28;21069;-53
2021/03/02 09:16:59;;;;;;;1.80;1.70;;;;;;;5.91;98.58;101840.00;5039788;28;20466;-54
2021/03/02 09:19:40;;;;;;;0.30;0.20;;;;;;;6.18;98.37;101840.41;5041314;28;20822;-54
2021/03/02 09:22:09;;;;;;;0.30;0.20;;;;;;;6.08;97.42;101845.50;5039060;28;20455;-54
2021/03/02 09:24:41;;;;;;;0.30;0.20;;;;;;;6.40;97.49;101843.31;5046737;28;20451;-54
2021/03/02 09:27:08;;;;;;;0.30;0.10;;;;;;;6.53;97.27;101843.50;5042353;28;20470;-54
2021/03/02 09:29:41;;;;;;;0.30;0.20;;;;;;;6.59;96.46;101841.81;5039916;28;20452;-54
2021/03/02 09:32:10;;;;;;;0.30;0.20;;;;;;;6.62;96.85;101845.38;5043016;28;20448;-54
2021/03/02 09:34:39;;;;;;;0.30;0.10;;;;;;;6.86;96.96;101844.81;5046781;28;20554;-54
2021/03/02 09:37:15;;;;;;;0.30;0.20;;;;;;;7.03;95.82;101850.28;5043710;28;20471;-54
2021/03/02 09:39:43;;;;;;;0.30;0.20;;;;;;;7.08;96.50;101846.81;5027196;28;20460;-54
2021/03/02 09:42:19;;;;;;;0.30;0.20;;;;;;;7.25;95.61;101849.63;5039540;28;20455;-54
2021/03/02 09:44:56;;;;;;;0.30;0.20;;;;;;;7.29;94.82;101845.25;5044706;28;20998;-54
2021/03/02 09:47:36;;;;;;;0.30;0.10;;;;;;;7.47;94.88;101852.47;5042533;28;20491;-54
2021/03/02 09:50:07;;;;;;;0.30;0.20;;;;;;;7.38;94.32;101850.63;5044612;28;20873;-54
2021/03/02 09:52:34;;;;;;;0.30;0.20;;;;;;;7.55;95.64;101850.81;5038869;28;20914;-54
2021/03/02 09:55:19;;;;;;;0.30;0.20;;;;;;;7.78;94.15;101854.50;5039947;28;20463;-54
2021/03/02 09:57:53;;;;;;;0.30;0.20;;;;;;;7.77;93.84;101852.75;5029851;28;20528;-54
2021/03/02 10:00:28;;;;;;;0.30;0.20;;;;;;;7.92;92.89;101855.50;5038981;28;20440;-54
2021/03/02 10:02:56;;;;;;;0.30;0.20;;;;;;;7.97;92.85;101852.91;5042223;28;20443;-54
2021/03/02 10:05:46;;;;;;;0.30;0.20;;;;;;;8.16;93.16;101854.78;5045760;28;20459;-54
2021/03/02 10:08:22;;;;;;;0.30;0.20;;;;;;;8.40;92.26;101851.44;5040869;28;20850;-54
2021/03/02 10:10:50;;;;;;;0.30;0.20;;;;;;;8.33;91.09;101853.13;5039803;28;20450;-54
2021/03/02 10:13:33;;;;;;;0.30;0.20;;;;;;;8.37;91.24;101845.25;5038784;28;20495;-54
2021/03/02 10:16:12;;;;;;;0.30;0.20;;;;;;;8.59;90.81;101841.81;5040984;28;20483;-54
2021/03/02 10:18:55;;;;;;;0.30;0.20;;;;;;;8.68;91.44;101846.28;5045664;28;20923;-54
2021/03/02 10:21:25;;;;;;;0.40;0.20;;;;;;;8.67;91.00;101853.34;5045657;28;20893;-54
2021/03/02 10:23:54;;;;;;;0.30;0.20;;;;;;;8.88;90.47;101847.22;5041308;28;20482;-54
2021/03/02 10:26:33;;;;;;;0.30;0.20;;;;;;;9.12;89.75;101843.78;5038335;28;20483;-54
2021/03/02 10:29:01;;;;;;;0.30;0.20;;;;;;;9.06;89.72;101847.31;5041204;28;20530;-54
2021/03/02 10:31:27;;;;;;;0.30;0.20;;;;;;;9.19;89.03;101843.81;5045567;28;20448;-54
2021/03/02 10:33:54;;;;;;;0.30;0.20;;;;;;;9.14;89.58;101849.97;5043851;28;20509;-54
2021/03/02 10:36:25;;;;;;;0.30;0.20;;;;;;;9.26;88.97;101852.66;5039042;28;20501;-54
2021/03/02 10:38:53;;;;;;;0.30;0.20;;;;;;;9.49;87.24;101850.03;5025771;28;21001;-54
2021/03/02 10:41:20;;;;;;;0.30;0.20;;;;;;;9.36;86.85;101849.13;5026418;28;20455;-54
2021/03/02 10:43:47;;;;;;;3.07;1.17;;;;;;;9.53;86.96;101853.56;5038781;28;20455;-54
2021/03/02 10:46:15;;;;;;;0.30;0.20;;;;;;;9.63;86.43;101853.59;5046949;28;20489;-54
2021/03/02 10:48:41;;;;;;;0.30;0.20;;;;;;;9.70;86.06;101851.81;5038398;28;20461;-54
2021/03/02 10:51:08;;;;;;;0.30;0.20;;;;;;;9.67;86.89;101854.47;5044731;28;20487;-54
2021/03/02 10:53:34;;;;;;;0.30;0.20;;;;;;;10.08;86.05;101855.34;5045378;28;21357;-54
2021/03/02 10:56:01;;;;;;;0.60;0.60;;;;;;;10.09;85.34;101848.25;5039325;28;20473;-54
2021/03/02 10:58:27;;;;;;;1.80;1.80;;;;;;;10.12;85.54;101848.22;5038708;28;20505;-54
2021/03/02 11:00:55;;;;;;;0.30;0.20;;;;;;;10.22;85.00;101849.16;5044411;28;20456;-54
2021/03/02 11:03:23;;;;;;;0.30;0.20;;;;;;;10.38;84.59;101851.75;5045450;28;20443;-54
2021/03/02 11:05:50;;;;;;;0.30;0.20;;;;;;;10.51;83.60;101841.09;5039708;28;20475;-54
2021/03/02 11:08:17;;;;;;;0.30;0.20;;;;;;;10.65;82.98;101844.59;5038959;28;20860;-54
2021/03/02 11:10:43;;;;;;;0.30;0.20;;;;;;;10.70;81.36;101847.25;5047438;28;20496;-54
2021/03/02 11:13:11;;;;;;;0.30;0.20;;;;;;;10.64;82.18;101842.81;5048769;28;20999;-55
2021/03/02 11:15:38;;;;;;;0.30;0.20;;;;;;;10.81;81.16;101840.97;5044576;28;20512;-54
2021/03/02 11:18:04;;;;;;;0.33;0.20;;;;;;;10.76;80.90;101832.13;5038736;28;20457;-54
2021/03/02 11:20:35;;;;;;;0.30;0.20;;;;;;;10.75;80.87;101841.00;5028160;28;20455;-54
2021/03/02 11:23:01;;;;;;;0.30;0.20;;;;;;;10.86;79.26;101844.50;5052041;28;20446;-54
2021/03/02 11:25:28;;;;;;;0.40;0.37;;;;;;;10.95;80.07;101833.78;5055398;28;20447;-55
2021/03/02 11:27:55;;;;;;;0.30;0.20;;;;;;;11.06;79.16;101828.44;5055405;28;20454;-54
2021/03/02 11:30:21;;;;;;;0.30;0.20;;;;;;;11.06;78.75;101824.88;5055589;28;20521;-54
2021/03/02 11:32:48;;;;;;;0.53;0.50;;;;;;;11.01;77.58;101816.94;5055526;28;20490;-54
2021/03/02 11:35:16;;;;;;;1.43;1.43;;;;;;;11.13;77.19;101815.97;5055671;28;20504;-54
2021/03/02 11:37:43;;;;;;;0.40;0.20;;;;;;;11.19;76.96;101815.94;5051053;28;20995;-54
2021/03/02 11:40:12;;;;;;;0.30;0.20;;;;;;;11.23;75.58;101805.25;5046038;28;20458;-54